Time;durP1;ratioP1;P1;durP2;ratioP2;P2;SDS_P1;SDS_P2;PMS_P1;PMS_P2;Temp;Humidity;BMP_temperature;BMP_pressure;BME280_temperature;BME280_humidity;BME280_pressure;Samples;Min_cycle;Max_cycle;Signal;HPM_P1;HPM_P2
2022/05/12 00:00:58;;;;;;;4.20;3.33;;;21.60;53.00;;;;;;5045173;28;20337;-65
2022/05/12 00:03:24;;;;;;;3.78;3.42;;;21.60;52.90;;;;;;5045525;28;22109;-66
2022/05/12 00:05:50;;;;;;;4.70;3.05;;;21.60;53.00;;;;;;5048335;28;20036;-65
2022/05/12 00:08:15;;;;;;;4.78;3.20;;;21.60;53.00;;;;;;5044761;28;20033;-65
2022/05/12 00:10:42;;;;;;;3.55;3.25;;;21.50;52.90;;;;;;5048492;28;20032;-65
2022/05/12 00:13:09;;;;;;;3.50;3.20;;;21.40;52.90;;;;;;5053625;28;20100;-65
2022/05/12 00:15:37;;;;;;;3.38;3.10;;;21.40;52.90;;;;;;5052453;28;20128;-66
2022/05/12 00:18:06;;;;;;;4.00;2.95;;;21.30;52.70;;;;;;5055237;28;20549;-65
2022/05/12 00:20:34;;;;;;;4.03;3.10;;;21.30;52.70;;;;;;5051327;28;20036;-66
2022/05/12 00:23:17;;;;;;;3.40;3.10;;;21.30;52.50;;;;;;5053928;28;20511;-65
2022/05/12 00:25:45;;;;;;;3.53;3.10;;;21.30;52.60;;;;;;5051227;28;20052;-65
2022/05/12 00:28:12;;;;;;;4.35;3.28;;;21.20;52.50;;;;;;5054910;28;20108;-65
2022/05/12 00:30:38;;;;;;;3.60;3.10;;;21.20;52.40;;;;;;5054380;28;20303;-65
2022/05/12 00:33:05;;;;;;;3.22;2.92;;;21.20;52.50;;;;;;5053365;28;20514;-65
2022/05/12 00:35:32;;;;;;;4.13;3.33;;;21.20;52.40;;;;;;5052856;28;20083;-65
2022/05/12 00:37:57;;;;;;;4.40;3.05;;;21.10;52.30;;;;;;5054890;28;20554;-65
2022/05/12 00:40:23;;;;;;;3.25;2.95;;;21.10;52.30;;;;;;5052926;28;20033;-65
2022/05/12 00:43:02;;;;;;;2.90;2.70;;;21.10;52.40;;;;;;5052056;28;20090;-66
2022/05/12 00:45:31;;;;;;;4.32;3.05;;;21.20;52.70;;;;;;5052404;28;20072;-65
2022/05/12 00:47:58;;;;;;;5.88;3.30;;;21.10;52.50;;;;;;5053183;28;20110;-65
2022/05/12 00:50:30;;;;;;;3.72;3.42;;;21.10;52.50;;;;;;5052898;28;20510;-65
2022/05/12 00:52:58;;;;;;;3.75;3.45;;;21.10;52.80;;;;;;5052372;28;20043;-65
2022/05/12 00:55:31;;;;;;;3.72;3.40;;;21.10;53.00;;;;;;5051499;28;20086;-65
2022/05/12 00:58:00;;;;;;;3.45;3.15;;;21.00;53.00;;;;;;5055136;28;20032;-65
2022/05/12 01:00:26;;;;;;;4.88;3.40;;;20.90;53.20;;;;;;5052340;28;20029;-65
2022/05/12 01:02:56;;;;;;;4.78;3.00;;;21.00;53.30;;;;;;5056411;28;20512;-66
2022/05/12 01:05:23;;;;;;;3.15;2.95;;;20.80;53.50;;;;;;5053020;28;20151;-65
2022/05/12 01:07:51;;;;;;;3.65;3.35;;;20.80;53.70;;;;;;5054126;28;20407;-65
2022/05/12 01:10:17;;;;;;;3.28;3.05;;;20.80;53.70;;;;;;5052137;28;20078;-65
2022/05/12 01:12:46;;;;;;;3.72;3.00;;;20.70;53.60;;;;;;5047508;28;20037;-65
2022/05/12 01:15:12;;;;;;;3.17;2.88;;;20.70;53.60;;;;;;5046324;28;20090;-65
2022/05/12 01:17:38;;;;;;;4.07;2.97;;;20.70;53.60;;;;;;5047521;28;20045;-65
2022/05/12 01:20:04;;;;;;;4.47;2.97;;;20.70;53.50;;;;;;5053297;28;20380;-65
2022/05/12 01:22:30;;;;;;;3.80;2.95;;;20.60;53.50;;;;;;5051551;28;20071;-65
2022/05/12 01:24:55;;;;;;;4.22;2.50;;;20.60;53.40;;;;;;5048388;28;20452;-66
2022/05/12 01:27:24;;;;;;;3.63;2.60;;;20.60;53.30;;;;;;5044293;28;20563;-65
2022/05/12 01:29:54;;;;;;;2.67;2.47;;;20.60;53.30;;;;;;5047807;28;20393;-65
2022/05/12 01:32:24;;;;;;;4.32;2.72;;;20.50;53.10;;;;;;5046079;28;20128;-65
2022/05/12 01:34:52;;;;;;;3.60;3.20;;;20.50;53.60;;;;;;5043424;28;20037;-65
2022/05/12 01:37:18;;;;;;;4.18;2.90;;;20.50;53.10;;;;;;5053428;28;20052;-66
2022/05/12 01:39:44;;;;;;;3.08;2.80;;;20.40;53.20;;;;;;5047165;28;20037;-65
2022/05/12 01:42:11;;;;;;;4.30;2.90;;;20.30;53.50;;;;;;5049473;28;20512;-65
2022/05/12 01:44:38;;;;;;;2.90;2.60;;;20.20;53.70;;;;;;5046621;28;20028;-64
2022/05/12 01:47:04;;;;;;;2.75;2.55;;;20.20;53.90;;;;;;5049368;28;20039;-65
2022/05/12 01:49:31;;;;;;;3.50;2.90;;;20.20;54.20;;;;;;5049953;28;20037;-65
2022/05/12 01:51:58;;;;;;;4.90;2.90;;;20.10;54.20;;;;;;5054828;28;20052;-65
2022/05/12 01:54:26;;;;;;;3.75;2.90;;;20.10;54.20;;;;;;5049510;28;20411;-67
2022/05/12 01:56:52;;;;;;;3.08;2.65;;;20.10;54.10;;;;;;5046733;28;20542;-65
2022/05/12 01:59:18;;;;;;;3.33;2.90;;;20.10;54.20;;;;;;5051420;28;20034;-65
2022/05/12 02:01:45;;;;;;;4.05;2.47;;;20.00;54.10;;;;;;5049555;28;20435;-64
2022/05/12 02:04:11;;;;;;;3.05;2.75;;;20.00;54.10;;;;;;5049594;28;20389;-66
2022/05/12 02:06:37;;;;;;;4.35;2.50;;;20.00;54.00;;;;;;5050843;28;20776;-64
2022/05/12 02:09:04;;;;;;;3.63;2.53;;;20.00;54.00;;;;;;5049902;28;20052;-65
2022/05/12 02:11:30;;;;;;;2.40;2.20;;;20.00;54.00;;;;;;5052054;28;20443;-64
2022/05/12 02:13:56;;;;;;;2.97;2.67;;;20.00;54.00;;;;;;5050406;28;20161;-65
2022/05/12 02:16:24;;;;;;;4.30;2.70;;;20.00;53.90;;;;;;5048468;28;20163;-65
2022/05/12 02:18:50;;;;;;;2.60;2.30;;;20.00;53.90;;;;;;5050457;28;20067;-65
2022/05/12 02:21:17;;;;;;;2.70;2.50;;;20.00;53.80;;;;;;5047571;28;20120;-64
2022/05/12 02:23:43;;;;;;;4.82;2.40;;;20.00;53.80;;;;;;5051317;28;20048;-65
2022/05/12 02:26:09;;;;;;;3.80;2.20;;;20.00;53.80;;;;;;5054179;28;20033;-65
2022/05/12 02:28:34;;;;;;;2.35;2.15;;;19.90;53.80;;;;;;5051202;28;20677;-65
2022/05/12 02:31:00;;;;;;;6.18;2.70;;;19.90;53.80;;;;;;5047602;28;20575;-64
2022/05/12 02:33:26;;;;;;;4.78;2.28;;;19.90;53.70;;;;;;5052253;28;20041;-65
2022/05/12 02:35:52;;;;;;;2.97;2.05;;;19.90;53.70;;;;;;5053060;28;20090;-65
2022/05/12 02:38:18;;;;;;;4.10;2.42;;;19.90;53.70;;;;;;5049818;28;20496;-63
2022/05/12 02:40:43;;;;;;;4.18;2.30;;;19.90;53.50;;;;;;5041957;28;20588;-65
2022/05/12 02:43:24;;;;;;;2.45;2.25;;;20.00;53.50;;;;;;5043405;28;20487;-64
2022/05/12 02:46:01;;;;;;;5.07;2.60;;;19.90;53.40;;;;;;5044690;28;20041;-64
2022/05/12 02:48:30;;;;;;;3.95;2.20;;;19.90;53.50;;;;;;5047969;28;20025;-65
2022/05/12 02:50:56;;;;;;;2.83;2.30;;;19.90;53.30;;;;;;5049294;28;21475;-64
2022/05/12 02:53:22;;;;;;;2.95;2.08;;;19.90;53.30;;;;;;5048564;28;20033;-65
2022/05/12 02:55:48;;;;;;;4.00;1.98;;;19.90;53.20;;;;;;5052234;28;20086;-65
2022/05/12 02:58:14;;;;;;;2.58;2.00;;;19.90;53.30;;;;;;5052515;28;20037;-65
2022/05/12 03:00:40;;;;;;;5.47;2.30;;;19.90;53.20;;;;;;5049397;28;20067;-65
2022/05/12 03:03:07;;;;;;;2.95;2.28;;;19.90;53.10;;;;;;5047485;28;20091;-65
2022/05/12 03:05:33;;;;;;;2.70;2.05;;;19.90;53.10;;;;;;5048255;28;20033;-65
2022/05/12 03:07:59;;;;;;;2.65;2.28;;;19.90;53.00;;;;;;5048350;28;21644;-65
2022/05/12 03:10:24;;;;;;;2.03;1.90;;;19.90;53.00;;;;;;5052693;28;20050;-65
2022/05/12 03:12:51;;;;;;;2.50;2.00;;;19.90;53.00;;;;;;5041622;28;20136;-64
2022/05/12 03:15:17;;;;;;;3.22;2.00;;;19.90;53.00;;;;;;5048182;28;20033;-65
2022/05/12 03:17:43;;;;;;;4.25;1.88;;;19.90;53.00;;;;;;5053565;28;20048;-65
2022/05/12 03:20:11;;;;;;;7.60;2.30;;;19.90;53.00;;;;;;5049043;28;20052;-64
2022/05/12 03:22:37;;;;;;;4.15;2.10;;;19.90;52.90;;;;;;5044834;28;20583;-65
2022/05/12 03:25:04;;;;;;;3.17;2.17;;;19.90;52.90;;;;;;5049224;28;20116;-63
2022/05/12 03:27:30;;;;;;;2.08;1.88;;;19.90;52.90;;;;;;5049590;28;20123;-65
2022/05/12 03:29:56;;;;;;;2.47;1.80;;;19.90;52.80;;;;;;5043248;28;20542;-65
2022/05/12 03:32:22;;;;;;;4.13;1.85;;;19.90;52.80;;;;;;5046015;28;20166;-64
2022/05/12 03:34:48;;;;;;;3.88;2.10;;;19.90;52.70;;;;;;5043921;28;20548;-65
2022/05/12 03:37:13;;;;;;;4.68;2.05;;;19.90;52.60;;;;;;5043348;28;20041;-65
2022/05/12 03:39:39;;;;;;;2.67;1.80;;;19.90;52.60;;;;;;5044389;28;20033;-65
2022/05/12 03:42:10;;;;;;;2.70;1.73;;;19.90;52.50;;;;;;5044479;28;20656;-65
2022/05/12 03:44:50;;;;;;;2.08;1.85;;;19.80;52.40;;;;;;5042066;28;20553;-65
2022/05/12 03:47:19;;;;;;;4.97;1.75;;;19.90;52.50;;;;;;5049806;28;20063;-66
2022/05/12 03:49:47;;;;;;;4.32;1.98;;;19.90;53.10;;;;;;5046702;28;20333;-65
2022/05/12 03:52:13;;;;;;;5.18;2.20;;;19.90;52.30;;;;;;5062927;28;20040;-65
2022/05/12 03:54:40;;;;;;;5.43;2.00;;;19.90;52.30;;;;;;5043021;28;20577;-65
2022/05/12 03:57:06;;;;;;;3.28;1.75;;;19.90;52.30;;;;;;5050040;28;20083;-65
2022/05/12 03:59:33;;;;;;;1.85;1.75;;;19.90;52.10;;;;;;5054007;28;20158;-65
2022/05/12 04:01:58;;;;;;;2.55;2.00;;;19.90;52.10;;;;;;5049978;28;20127;-66
2022/05/12 04:04:24;;;;;;;2.38;1.90;;;19.90;52.10;;;;;;5049051;28;20503;-67
2022/05/12 04:06:50;;;;;;;1.98;1.50;;;19.90;52.00;;;;;;5049063;28;20496;-65
2022/05/12 04:09:15;;;;;;;3.55;1.70;;;19.90;51.90;;;;;;5049962;28;20517;-65
2022/05/12 04:11:41;;;;;;;3.58;1.80;;;19.90;51.90;;;;;;5046522;28;20617;-64
2022/05/12 04:14:07;;;;;;;3.13;2.00;;;19.90;51.90;;;;;;5051621;28;20059;-65
2022/05/12 04:16:33;;;;;;;5.47;1.90;;;19.90;52.00;;;;;;5044676;28;20174;-65
2022/05/12 04:18:59;;;;;;;3.97;1.80;;;19.90;51.80;;;;;;5050169;28;20040;-65
2022/05/12 04:21:26;;;;;;;11.68;3.97;;;20.00;51.80;;;;;;5042671;28;20037;-64
2022/05/12 04:23:52;;;;;;;27.13;16.95;;;20.00;51.70;;;;;;5045868;28;20032;-65
2022/05/12 04:26:18;;;;;;;5.88;5.00;;;20.00;51.70;;;;;;5046393;28;20459;-65
2022/05/12 04:28:45;;;;;;;4.40;2.83;;;20.00;51.60;;;;;;5047886;28;20070;-64
2022/05/12 04:31:10;;;;;;;3.25;2.03;;;20.00;51.60;;;;;;5040275;28;20074;-65
2022/05/12 04:36:20;;;;;;;5.80;2.00;;;20.00;51.60;;;;;;5043727;28;20627;-65
2022/05/12 04:38:46;;;;;;;11.70;2.10;;;20.10;51.70;;;;;;5053447;28;20499;-65
2022/05/12 04:41:12;;;;;;;2.67;1.88;;;20.10;51.70;;;;;;5051956;28;20033;-66
2022/05/12 04:43:37;;;;;;;10.15;2.03;;;20.10;51.90;;;;;;5052723;28;20119;-66
2022/05/12 04:46:03;;;;;;;7.55;2.30;;;20.10;52.40;;;;;;5040610;28;20079;-65
2022/05/12 04:48:31;;;;;;;4.63;2.53;;;20.20;52.70;;;;;;5048543;28;20031;-65
2022/05/12 04:50:59;;;;;;;4.78;2.40;;;20.20;52.70;;;;;;5041516;28;20106;-65
2022/05/12 04:53:25;;;;;;;5.25;2.15;;;20.20;52.60;;;;;;5050192;28;20510;-64
2022/05/12 04:55:51;;;;;;;4.22;2.35;;;20.20;52.80;;;;;;5044025;28;20037;-66
2022/05/12 04:58:17;;;;;;;5.38;1.75;;;20.20;53.10;;;;;;5044766;28;20500;-65
2022/05/12 05:00:44;;;;;;;3.42;1.85;;;20.20;53.00;;;;;;5044260;28;23976;-65
2022/05/12 05:03:11;;;;;;;5.38;2.10;;;20.20;53.30;;;;;;5044958;28;20056;-65
2022/05/12 05:05:37;;;;;;;5.43;1.88;;;20.20;53.40;;;;;;5045194;28;20029;-65
2022/05/12 05:08:04;;;;;;;5.50;1.80;;;20.20;53.40;;;;;;5042425;28;20177;-65
2022/05/12 05:10:32;;;;;;;3.17;1.88;;;20.20;53.40;;;;;;5051283;28;20503;-65
2022/05/12 05:12:58;;;;;;;3.40;1.80;;;20.20;53.50;;;;;;5049947;28;20052;-65
2022/05/12 05:15:25;;;;;;;4.38;2.58;;;20.20;53.70;;;;;;5056274;28;20052;-65
2022/05/12 05:17:51;;;;;;;4.95;3.35;;;20.20;53.70;;;;;;5051741;28;20571;-65
2022/05/12 05:20:21;;;;;;;9.20;2.70;;;20.10;53.70;;;;;;5050168;28;20039;-66
2022/05/12 05:22:47;;;;;;;9.57;2.60;;;20.20;53.90;;;;;;5054181;28;20029;-64
2022/05/12 05:25:14;;;;;;;10.57;2.25;;;20.20;54.00;;;;;;5056819;28;20040;-66
2022/05/12 05:27:40;;;;;;;11.02;5.38;;;20.20;53.70;;;;;;5055448;28;20041;-65
2022/05/12 05:30:09;;;;;;;8.07;3.00;;;20.20;53.70;;;;;;5058115;28;20082;-65
2022/05/12 05:32:34;;;;;;;8.45;2.45;;;20.20;53.40;;;;;;5055851;28;20060;-65
2022/05/12 05:35:00;;;;;;;6.75;2.72;;;20.20;53.40;;;;;;5055189;28;20432;-65
2022/05/12 05:37:26;;;;;;;6.13;3.08;;;20.30;53.80;;;;;;5053746;28;20384;-66
2022/05/12 05:39:51;;;;;;;6.28;3.20;;;20.30;53.60;;;;;;5055714;28;20048;-65
2022/05/12 05:42:19;;;;;;;4.75;2.88;;;20.30;53.30;;;;;;5052663;28;20337;-64
2022/05/12 05:44:45;;;;;;;8.30;4.75;;;20.30;53.00;;;;;;5047130;28;20502;-63
2022/05/12 05:47:10;;;;;;;6.75;2.72;;;20.40;53.00;;;;;;5054774;28;20041;-66
2022/05/12 05:49:37;;;;;;;7.25;2.60;;;20.40;52.90;;;;;;5049022;28;20036;-65
2022/05/12 05:54:47;;;;;;;8.65;1.73;;;20.40;52.60;;;;;;5046159;28;20450;-65
2022/05/12 05:57:13;;;;;;;6.95;1.80;;;20.40;52.50;;;;;;5048242;28;20029;-66
2022/05/12 05:59:38;;;;;;;4.63;1.77;;;20.50;52.30;;;;;;5054343;28;20037;-66
2022/05/12 06:02:05;;;;;;;5.55;1.70;;;20.50;52.20;;;;;;5047308;28;20040;-65
2022/05/12 06:04:30;;;;;;;5.45;1.83;;;20.50;52.00;;;;;;5045802;28;20486;-66
2022/05/12 06:06:57;;;;;;;2.25;1.58;;;20.50;51.90;;;;;;5049565;28;20052;-65
2022/05/12 06:09:23;;;;;;;7.28;1.98;;;20.50;51.90;;;;;;5055118;28;20067;-65
2022/05/12 06:11:49;;;;;;;4.07;1.45;;;20.50;51.80;;;;;;5049903;28;20407;-65
2022/05/12 06:14:15;;;;;;;4.28;1.63;;;20.50;51.60;;;;;;5044425;28;20033;-65
2022/05/12 06:16:41;;;;;;;4.65;1.75;;;20.60;51.70;;;;;;5044845;28;20100;-65
2022/05/12 06:19:06;;;;;;;5.07;1.58;;;20.60;51.70;;;;;;5042698;28;20036;-66
2022/05/12 06:21:36;;;;;;;3.70;1.70;;;20.60;51.70;;;;;;5045211;28;20028;-65
2022/05/12 06:24:02;;;;;;;4.20;1.98;;;20.70;51.80;;;;;;5040847;28;20029;-65
2022/05/12 06:26:28;;;;;;;7.15;1.90;;;20.70;51.90;;;;;;5048376;28;20055;-65
2022/05/12 06:28:53;;;;;;;6.80;2.00;;;20.80;51.80;;;;;;5045930;28;20037;-65
2022/05/12 06:31:30;;;;;;;5.00;1.75;;;20.80;51.80;;;;;;5045007;28;20499;-65
2022/05/12 06:33:57;;;;;;;4.30;1.90;;;20.90;51.90;;;;;;5052228;28;20693;-65
2022/05/12 06:36:23;;;;;;;4.35;1.60;;;20.90;51.60;;;;;;5051151;28;20041;-66
2022/05/12 06:38:49;;;;;;;4.05;1.65;;;21.00;51.60;;;;;;5043554;28;20032;-66
2022/05/12 06:41:15;;;;;;;3.00;2.08;;;21.00;51.40;;;;;;5048746;28;20129;-65
2022/05/12 06:43:45;;;;;;;2.78;1.73;;;21.10;51.30;;;;;;5048938;28;20507;-66
2022/05/12 06:46:16;;;;;;;2.03;1.63;;;21.20;51.50;;;;;;5053342;28;20393;-66
2022/05/12 06:48:47;;;;;;;3.92;1.60;;;21.20;51.40;;;;;;5055234;28;20025;-66
2022/05/12 06:51:17;;;;;;;2.13;1.88;;;21.30;51.00;;;;;;5042852;28;20025;-65
2022/05/12 06:53:42;;;;;;;3.75;1.75;;;21.40;51.20;;;;;;5048275;28;20037;-66
2022/05/12 06:56:09;;;;;;;3.58;2.00;;;21.40;51.50;;;;;;5047490;28;20060;-66
2022/05/12 06:58:36;;;;;;;3.92;1.88;;;21.40;51.30;;;;;;5064807;28;20041;-66
2022/05/12 07:01:02;;;;;;;4.35;1.80;;;21.50;51.20;;;;;;5051882;28;20035;-66
2022/05/12 07:03:29;;;;;;;1.70;1.60;;;21.60;51.00;;;;;;5057888;28;20029;-65
2022/05/12 07:05:55;;;;;;;3.80;1.90;;;21.60;50.70;;;;;;5055459;28;20036;-66
2022/05/12 07:08:21;;;;;;;4.90;2.40;;;21.70;50.50;;;;;;5058388;28;20504;-65
2022/05/12 07:10:47;;;;;;;10.15;2.20;;;21.80;50.30;;;;;;5058744;28;20164;-66
2022/05/12 07:13:19;;;;;;;6.65;2.10;;;21.80;50.40;;;;;;5057594;28;20440;-65
2022/05/12 07:15:48;;;;;;;3.20;1.95;;;21.90;50.50;;;;;;5054702;28;20123;-66
2022/05/12 07:18:15;;;;;;;4.18;2.03;;;21.90;50.20;;;;;;5043005;28;20037;-65
2022/05/12 07:28:54;;;;;;;4.07;1.75;;;22.20;49.80;;;;;;5054392;28;20157;-66
2022/05/12 07:31:20;;;;;;;3.58;1.90;;;22.30;49.80;;;;;;5051546;28;20533;-65
2022/05/12 07:33:47;;;;;;;2.30;2.10;;;22.30;49.60;;;;;;5062186;28;20024;-66
2022/05/12 07:36:20;;;;;;;4.30;1.90;;;22.40;49.50;;;;;;5051922;28;20026;-66
2022/05/12 07:38:46;;;;;;;2.95;1.70;;;22.40;49.40;;;;;;5053357;28;20380;-66
2022/05/12 07:41:13;;;;;;;24.60;2.53;;;22.40;49.10;;;;;;5054988;28;20387;-66
2022/05/12 07:43:39;;;;;;;6.50;2.15;;;22.50;49.50;;;;;;5053067;28;20036;-66
2022/05/12 07:46:06;;;;;;;2.97;2.03;;;22.50;49.50;;;;;;5051516;28;20037;-66
2022/05/12 07:48:33;;;;;;;3.72;1.90;;;22.50;49.30;;;;;;5054066;28;20033;-66
2022/05/12 07:50:58;;;;;;;3.72;1.88;;;22.50;49.40;;;;;;5053459;28;20039;-65
2022/05/12 07:53:24;;;;;;;7.18;2.00;;;22.60;49.40;;;;;;5053488;28;20108;-65
2022/05/12 07:55:50;;;;;;;3.33;1.75;;;22.60;49.10;;;;;;5052455;28;20029;-66
2022/05/12 07:58:16;;;;;;;5.68;2.35;;;22.70;49.30;;;;;;5054457;28;20029;-66
2022/05/12 08:00:42;;;;;;;6.03;2.20;;;22.70;49.50;;;;;;5054696;28;20025;-65
2022/05/12 08:03:07;;;;;;;5.13;2.35;;;22.70;49.60;;;;;;5047427;28;20277;-66
2022/05/12 08:05:34;;;;;;;4.32;2.10;;;22.80;49.80;;;;;;5055321;28;20082;-66
2022/05/12 08:07:59;;;;;;;3.03;2.20;;;22.80;49.90;;;;;;5052922;28;20056;-66
2022/05/12 08:10:25;;;;;;;5.07;2.17;;;22.90;49.50;;;;;;5052662;28;20114;-66
2022/05/12 08:12:51;;;;;;;4.18;2.03;;;22.90;49.50;;;;;;5054028;28;20160;-65
2022/05/12 08:15:18;;;;;;;8.15;2.60;;;23.00;49.90;;;;;;5053702;28;20042;-65
2022/05/12 08:17:43;;;;;;;5.00;2.38;;;23.10;49.70;;;;;;5052979;28;20124;-65
2022/05/12 08:20:11;;;;;;;8.23;2.38;;;23.20;49.80;;;;;;5045353;28;20178;-66
2022/05/12 08:22:38;;;;;;;5.57;2.17;;;23.20;49.50;;;;;;5044482;28;20032;-65
2022/05/12 08:25:04;;;;;;;3.45;2.28;;;23.30;49.90;;;;;;5046807;28;20028;-66
2022/05/12 08:27:31;;;;;;;5.32;2.15;;;23.40;49.70;;;;;;5045033;28;20059;-65
2022/05/12 08:29:57;;;;;;;7.95;2.78;;;23.50;49.50;;;;;;5049430;28;20036;-65
2022/05/12 08:32:22;;;;;;;7.03;2.30;;;23.60;49.40;;;;;;5043308;28;20087;-66
2022/05/12 08:34:48;;;;;;;3.85;2.50;;;23.60;49.30;;;;;;5051466;28;20815;-65
2022/05/12 08:37:15;;;;;;;5.25;2.67;;;23.70;49.00;;;;;;5046599;28;20097;-66
2022/05/12 08:39:44;;;;;;;2.88;2.47;;;23.80;49.00;;;;;;5051034;28;20029;-66
2022/05/12 08:42:21;;;;;;;3.65;2.53;;;23.80;48.90;;;;;;5066333;28;20033;-64
2022/05/12 08:44:48;;;;;;;3.35;2.63;;;23.90;49.10;;;;;;5048146;28;20028;-65
2022/05/12 08:47:18;;;;;;;4.05;2.75;;;24.00;48.90;;;;;;5050469;28;20025;-65
2022/05/12 08:49:51;;;;;;;7.50;2.80;;;24.10;48.90;;;;;;5046134;28;20136;-66
2022/05/12 08:52:23;;;;;;;2.72;2.53;;;24.10;48.80;;;;;;5051197;28;20029;-65
2022/05/12 08:54:54;;;;;;;5.97;2.78;;;24.20;48.70;;;;;;5049957;28;20036;-65
2022/05/12 08:57:31;;;;;;;5.03;2.63;;;24.30;48.70;;;;;;5051725;28;20071;-65
2022/05/12 08:59:58;;;;;;;2.95;2.60;;;24.30;48.00;;;;;;5055587;28;20108;-65
2022/05/12 09:02:36;;;;;;;3.10;2.67;;;24.40;48.40;;;;;;5046525;28;20022;-66
2022/05/12 09:05:15;;;;;;;2.83;2.63;;;24.40;48.40;;;;;;5045281;28;20036;-65
2022/05/12 09:07:46;;;;;;;5.00;2.50;;;24.50;47.60;;;;;;5051289;28;20045;-66
2022/05/12 09:10:24;;;;;;;3.03;2.50;;;24.50;47.90;;;;;;5047304;28;20139;-66
2022/05/12 09:13:00;;;;;;;5.50;2.72;;;24.50;48.00;;;;;;5047288;28;20033;-65
2022/05/12 09:15:35;;;;;;;2.88;2.25;;;24.60;48.50;;;;;;5048743;27;20056;-65
2022/05/12 09:18:27;;;;;;;4.93;2.60;;;24.70;48.60;;;;;;5051227;28;20051;-65
2022/05/12 09:20:53;;;;;;;6.53;2.67;;;24.70;48.00;;;;;;5046917;28;20025;-65
2022/05/12 09:23:18;;;;;;;6.07;2.63;;;24.80;48.00;;;;;;5049164;28;20048;-66
2022/05/12 09:25:47;;;;;;;7.05;2.92;;;24.90;47.70;;;;;;5049837;28;20492;-66
2022/05/12 09:28:36;;;;;;;4.10;2.22;;;25.00;47.60;;;;;;5051610;28;20533;-65
2022/05/12 09:31:15;;;;;;;3.45;2.70;;;25.00;47.40;;;;;;5048287;28;20107;-64
2022/05/12 09:33:41;;;;;;;3.53;3.00;;;25.10;47.20;;;;;;5045380;28;20862;-65
2022/05/12 09:36:13;;;;;;;5.55;3.20;;;25.20;47.50;;;;;;5043436;28;20082;-65
2022/05/12 09:38:42;;;;;;;6.50;2.30;;;25.20;47.00;;;;;;5049050;28;20068;-66
2022/05/12 09:41:23;;;;;;;2.90;2.30;;;25.30;47.40;;;;;;5044202;28;20040;-64
2022/05/12 09:43:54;;;;;;;6.38;2.20;;;25.40;46.90;;;;;;5048159;28;20139;-65
2022/05/12 09:46:22;;;;;;;3.47;2.72;;;25.50;47.30;;;;;;5049681;28;20178;-65
2022/05/12 09:48:49;;;;;;;6.10;2.50;;;25.60;47.40;;;;;;5047558;28;20051;-65
2022/05/12 09:51:34;;;;;;;3.25;2.47;;;25.60;47.10;;;;;;5051903;28;20024;-66
2022/05/12 09:54:27;;;;;;;5.53;2.55;;;25.70;46.40;;;;;;5051623;28;20025;-66
2022/05/12 09:57:02;;;;;;;7.63;2.45;;;25.80;46.30;;;;;;5051960;28;20129;-66
2022/05/12 09:59:29;;;;;;;;;;;25.90;46.50;;;;;;5064516;28;20061;-66
2022/05/12 10:02:12;;;;;;;3.97;2.42;;;26.00;46.80;;;;;;5051654;28;19927;-65
2022/05/12 10:10:25;;;;;;;3.03;2.35;;;26.20;46.00;;;;;;5058585;28;20039;-65
2022/05/12 10:13:13;;;;;;;4.00;2.53;;;26.30;46.30;;;;;;5047883;28;20082;-66
2022/05/12 10:15:42;;;;;;;7.30;2.70;;;26.30;46.00;;;;;;5053132;28;20127;-66
2022/05/12 10:18:40;;;;;;;4.10;2.47;;;26.40;46.60;;;;;;5050853;28;20037;-66
2022/05/12 10:21:14;;;;;;;4.35;2.30;;;26.40;45.10;;;;;;5054641;28;20025;-66
2022/05/12 10:24:05;;;;;;;5.20;2.47;;;26.40;45.50;;;;;;5050807;28;20028;-65
2022/05/12 10:26:38;;;;;;;5.75;2.58;;;26.50;45.50;;;;;;5049224;28;20029;-66
2022/05/12 10:29:32;;;;;;;5.47;2.88;;;26.50;45.40;;;;;;5054319;28;20125;-66
2022/05/12 10:32:40;;;;;;;3.80;2.60;;;26.60;44.80;;;;;;5051460;28;20082;-66
2022/05/12 10:35:26;;;;;;;2.83;2.45;;;26.60;45.00;;;;;;5049222;28;20044;-66
2022/05/12 10:38:07;;;;;;;3.85;2.58;;;26.60;45.20;;;;;;5049526;28;20427;-65
2022/05/12 10:41:01;;;;;;;2.88;2.58;;;26.70;44.90;;;;;;5055661;28;20036;-66
2022/05/12 10:43:42;;;;;;;9.00;3.25;;;26.70;45.10;;;;;;5046101;28;20438;-64
2022/05/12 10:46:23;;;;;;;3.67;2.78;;;26.70;44.90;;;;;;5050004;28;20424;-66
2022/05/12 10:48:58;;;;;;;2.90;2.60;;;26.70;44.70;;;;;;5053810;28;20028;-67
2022/05/12 10:51:46;;;;;;;4.30;2.40;;;26.70;44.40;;;;;;5052442;28;20514;-66
2022/05/12 10:54:50;;;;;;;4.63;2.70;;;26.70;45.00;;;;;;5051450;28;20028;-66
2022/05/12 10:57:32;;;;;;;2.70;2.45;;;26.80;45.10;;;;;;5015711;28;20033;-66
2022/05/12 11:00:25;;;;;;;6.15;2.63;;;26.80;45.10;;;;;;5041213;28;20033;-64
2022/05/12 11:02:55;;;;;;;4.18;2.50;;;26.90;44.50;;;;;;5051132;28;20031;-66
2022/05/12 11:05:21;;;;;;;3.67;2.55;;;26.90;45.00;;;;;;5055284;28;20036;-66
2022/05/12 11:08:09;;;;;;;3.60;2.45;;;26.90;45.10;;;;;;5046597;28;20660;-66
2022/05/12 11:10:48;;;;;;;3.30;2.33;;;26.90;44.60;;;;;;5051584;28;20033;-64
2022/05/12 11:13:37;;;;;;;4.78;2.90;;;27.00;45.00;;;;;;5055331;28;20116;-66
2022/05/12 11:16:11;;;;;;;3.33;2.25;;;27.00;45.00;;;;;;5048343;28;20095;-66
2022/05/12 11:18:46;;;;;;;2.88;2.45;;;27.00;45.40;;;;;;5053682;28;20538;-66
2022/05/12 11:21:18;;;;;;;7.60;2.50;;;27.10;44.30;;;;;;5054094;28;20518;-65
2022/05/12 11:24:13;;;;;;;3.15;2.70;;;27.10;44.30;;;;;;5051301;28;20029;-65
2022/05/12 11:26:47;;;;;;;6.38;2.90;;;27.10;44.50;;;;;;5052879;28;20037;-66
2022/05/12 11:29:51;;;;;;;3.72;2.47;;;27.10;44.30;;;;;;5052894;28;20415;-66
2022/05/12 11:32:34;;;;;;;3.63;2.60;;;27.20;43.80;;;;;;5049141;28;20074;-65
2022/05/12 11:35:26;;;;;;;4.80;2.63;;;27.20;43.70;;;;;;5047757;28;20163;-66
2022/05/12 11:38:03;;;;;;;4.18;2.50;;;27.20;43.70;;;;;;5052935;28;20041;-66
2022/05/12 11:40:44;;;;;;;2.75;2.53;;;27.20;43.10;;;;;;5048834;28;20120;-66
2022/05/12 11:46:23;;;;;;;2.75;2.13;;;27.30;43.50;;;;;;5053969;28;20039;-67
2022/05/12 11:49:02;;;;;;;7.00;2.78;;;27.30;44.10;;;;;;5053548;28;20083;-65
2022/05/12 11:51:59;;;;;;;2.95;2.40;;;27.30;44.20;;;;;;5053868;28;20029;-66
2022/05/12 11:54:57;;;;;;;2.60;2.35;;;27.40;43.60;;;;;;5010029;28;20099;-66
2022/05/12 11:57:40;;;;;;;3.75;2.60;;;27.50;43.90;;;;;;5053754;28;20036;-66
2022/05/12 12:00:31;;;;;;;4.93;2.65;;;27.50;43.40;;;;;;5055653;28;20068;-67
2022/05/12 12:02:57;;;;;;;2.97;2.60;;;27.60;43.80;;;;;;5053969;28;20400;-67
2022/05/12 12:05:29;;;;;;;4.30;2.40;;;27.60;43.40;;;;;;5054273;28;20045;-67
2022/05/12 12:08:09;;;;;;;2.53;2.33;;;27.70;43.10;;;;;;5053706;28;20525;-66
2022/05/12 12:10:43;;;;;;;2.53;2.33;;;27.70;42.80;;;;;;5051886;28;20044;-66
2022/05/12 12:13:15;;;;;;;4.82;2.42;;;27.80;42.30;;;;;;5052877;28;20662;-67
2022/05/12 12:15:44;;;;;;;6.28;3.20;;;27.80;42.90;;;;;;5054511;28;20288;-66
2022/05/12 12:18:19;;;;;;;2.20;2.10;;;27.90;43.00;;;;;;5055049;28;20167;-66
2022/05/12 12:20:44;;;;;;;3.05;2.60;;;27.90;42.80;;;;;;5045899;28;20412;-66
2022/05/12 12:23:30;;;;;;;3.15;2.30;;;27.90;43.10;;;;;;5048210;28;20032;-66
2022/05/12 12:26:10;;;;;;;5.68;2.35;;;28.00;43.50;;;;;;5049588;28;20034;-66
2022/05/12 12:28:38;;;;;;;4.20;2.63;;;28.00;43.30;;;;;;5041924;28;20041;-67
2022/05/12 12:31:08;;;;;;;3.47;2.28;;;28.00;43.30;;;;;;5035699;28;20048;-65
2022/05/12 12:33:35;;;;;;;3.78;3.10;;;28.10;43.10;;;;;;5038599;28;20120;-66
2022/05/12 12:36:29;;;;;;;2.88;2.33;;;28.10;42.90;;;;;;5041703;28;20089;-66
2022/05/12 12:38:55;;;;;;;2.50;2.30;;;28.30;42.60;;;;;;5033676;28;20071;-66
2022/05/12 12:41:28;;;;;;;4.45;2.45;;;28.30;42.90;;;;;;5044143;28;20510;-66
2022/05/12 12:44:03;;;;;;;4.85;2.53;;;28.30;43.00;;;;;;5051700;28;20424;-67
2022/05/12 12:46:44;;;;;;;5.82;2.42;;;28.40;42.80;;;;;;5054035;28;20037;-67
2022/05/12 12:49:22;;;;;;;2.38;2.13;;;28.40;42.30;;;;;;5049351;28;20044;-66
2022/05/12 12:52:05;;;;;;;9.55;2.70;;;28.40;42.30;;;;;;5053690;28;20036;-66
2022/05/12 12:57:21;;;;;;;4.47;2.38;;;28.30;43.10;;;;;;5053115;28;20094;-65
2022/05/12 12:59:50;;;;;;;4.38;2.70;;;28.30;42.70;;;;;;5068221;28;20036;-66
2022/05/12 13:02:42;;;;;;;4.93;2.40;;;28.30;41.70;;;;;;5053180;28;20496;-65
2022/05/12 13:05:12;;;;;;;3.65;2.45;;;28.30;42.00;;;;;;5052643;28;20033;-67
2022/05/12 13:07:40;;;;;;;4.28;2.40;;;28.20;42.10;;;;;;5052959;28;20129;-66
2022/05/12 13:10:24;;;;;;;4.32;2.45;;;28.20;42.40;;;;;;5052795;28;20037;-66
2022/05/12 13:13:03;;;;;;;3.03;2.38;;;28.20;42.60;;;;;;5051189;28;20496;-66
2022/05/12 13:15:32;;;;;;;3.83;2.42;;;28.20;42.00;;;;;;5044522;28;20045;-65
2022/05/12 13:18:01;;;;;;;4.47;2.40;;;28.10;42.80;;;;;;5043099;28;20033;-65
2022/05/12 13:20:32;;;;;;;3.35;2.45;;;28.10;42.70;;;;;;5047066;28;20055;-67
2022/05/12 13:23:07;;;;;;;5.05;2.83;;;28.20;42.30;;;;;;5042738;28;20458;-66
2022/05/12 13:25:37;;;;;;;4.05;2.45;;;28.20;42.20;;;;;;5043295;28;20045;-65
2022/05/12 13:28:06;;;;;;;4.85;2.50;;;28.20;42.40;;;;;;5046312;28;20124;-66
2022/05/12 13:30:37;;;;;;;3.95;2.85;;;28.30;42.30;;;;;;5042912;28;20033;-67